createdAt,value
2019-01-04T00:01:16.541Z,39.80
2019-01-04T00:03:17.398Z,39.03
2019-01-04T00:05:18.219Z,39.57
2019-01-04T00:07:19.332Z,38.00
2019-01-04T00:09:20.184Z,37.97
2019-01-04T00:11:21.137Z,41.53
2019-01-04T00:13:21.970Z,37.37
2019-01-04T00:15:22.791Z,37.87
2019-01-04T00:17:23.639Z,37.70
2019-01-04T00:19:24.475Z,40.90
2019-01-04T00:21:25.564Z,48.03
2019-01-04T00:23:26.418Z,45.27
2019-01-04T00:25:27.244Z,42.33
2019-01-04T00:27:28.095Z,40.60
2019-01-04T00:29:28.931Z,46.20
2019-01-04T00:31:29.772Z,42.27
2019-01-04T00:33:30.605Z,44.40
2019-01-04T00:35:31.424Z,41.90
2019-01-04T00:37:32.268Z,42.90
2019-01-04T00:39:33.128Z,42.63
2019-01-04T00:41:33.953Z,41.50
2019-01-04T00:43:34.809Z,41.43
2019-01-04T00:45:35.644Z,40.07
2019-01-04T00:47:36.472Z,43.23
2019-01-04T00:49:37.600Z,45.93
2019-01-04T00:51:38.782Z,43.43
2019-01-04T00:53:39.628Z,41.73
2019-01-04T00:55:40.879Z,43.43
2019-01-04T00:57:41.711Z,45.93
2019-01-04T00:59:42.545Z,43.50
2019-01-04T01:01:43.384Z,46.30
2019-01-04T01:03:44.219Z,45.80
2019-01-04T01:05:45.735Z,43.63
2019-01-04T01:07:46.680Z,44.97
2019-01-04T01:09:47.817Z,44.87
2019-01-04T01:11:48.679Z,44.67
2019-01-04T01:13:49.506Z,45.77
2019-01-04T01:15:50.340Z,47.50
2019-01-04T01:17:51.189Z,47.23
2019-01-04T01:19:52.016Z,47.27
2019-01-04T01:21:52.865Z,50.33
2019-01-04T01:23:53.694Z,45.77
2019-01-04T01:25:54.521Z,48.80
2019-01-04T01:27:55.364Z,47.83
2019-01-04T01:29:56.206Z,45.83
2019-01-04T01:31:57.452Z,44.67
2019-01-04T01:33:58.652Z,45.77
2019-01-04T01:35:59.501Z,45.43
2019-01-04T01:38:01.116Z,47.73
2019-01-04T01:40:02.256Z,42.07
2019-01-04T01:42:03.205Z,49.50
2019-01-04T01:44:04.032Z,47.73
2019-01-04T01:46:04.860Z,45.63
2019-01-04T01:48:05.688Z,43.50
2019-01-04T01:50:06.560Z,49.43
2019-01-04T01:52:07.377Z,44.57
2019-01-04T01:54:08.201Z,47.97
2019-01-04T01:56:09.053Z,44.77
2019-01-04T01:58:09.873Z,45.90
2019-01-04T02:00:11.020Z,40.60
2019-01-04T02:02:12.136Z,43.07
2019-01-04T02:04:12.974Z,45.13
2019-01-04T02:06:13.798Z,38.80
2019-01-04T02:08:14.636Z,41.17
2019-01-04T02:10:15.496Z,47.20
2019-01-04T02:12:16.324Z,50.87
2019-01-04T02:14:17.157Z,42.60
2019-01-04T02:16:18.001Z,41.33
2019-01-04T02:18:18.836Z,42.50
2019-01-04T02:20:19.688Z,41.63
2019-01-04T02:22:20.508Z,43.53
2019-01-04T02:24:21.365Z,42.53
2019-01-04T02:26:22.203Z,45.53
2019-01-04T02:28:23.376Z,44.70
2019-01-04T02:30:24.224Z,41.80
2019-01-04T02:32:25.052Z,43.00
2019-01-04T02:34:25.876Z,41.10
2019-01-04T02:36:26.731Z,41.33
2019-01-04T02:38:27.552Z,45.37
2019-01-04T02:40:28.381Z,43.10
2019-01-04T02:42:29.236Z,42.30
2019-01-04T02:44:30.061Z,44.63
2019-01-04T02:46:30.896Z,44.37
2019-01-04T02:48:31.733Z,40.00
2019-01-04T02:50:32.573Z,43.47
2019-01-04T02:52:33.428Z,42.10
2019-01-04T02:54:34.285Z,42.20
2019-01-04T02:56:35.448Z,40.73
2019-01-04T02:58:36.272Z,43.23
2019-01-04T03:00:37.120Z,40.57
2019-01-04T03:02:37.958Z,38.63
2019-01-04T03:04:38.804Z,41.57
2019-01-04T03:06:39.665Z,40.13
2019-01-04T03:08:40.490Z,41.13
2019-01-04T03:10:41.315Z,41.20
2019-01-04T03:12:42.168Z,36.87
2019-01-04T03:14:43.381Z,38.97
2019-01-04T03:16:44.205Z,39.30
2019-01-04T03:18:45.497Z,40.27
2019-01-04T03:20:46.333Z,35.67
2019-01-04T03:22:47.160Z,36.40
2019-01-04T03:24:48.369Z,38.87
2019-01-04T03:26:49.213Z,37.87
2019-01-04T03:28:50.052Z,36.20
2019-01-04T03:30:50.902Z,40.83
2019-01-04T03:32:52.301Z,42.37
2019-01-04T03:34:53.145Z,39.87
2019-01-04T03:36:53.972Z,38.77
2019-01-04T03:38:54.812Z,40.90
2019-01-04T03:40:55.638Z,40.77
2019-01-04T03:42:56.484Z,36.13
2019-01-04T03:44:57.324Z,42.90
2019-01-04T03:46:58.148Z,39.33
2019-01-04T03:48:59.000Z,37.87
2019-01-04T03:50:59.829Z,39.77
2019-01-04T03:53:00.698Z,38.57
2019-01-04T03:55:01.513Z,40.27
2019-01-04T03:57:02.348Z,42.00
2019-01-04T03:59:03.198Z,40.63
2019-01-04T04:01:04.026Z,40.87
2019-01-04T04:03:05.539Z,41.53
2019-01-04T04:05:06.652Z,44.67
2019-01-04T04:07:07.485Z,41.60
2019-01-04T04:09:08.333Z,40.07
2019-01-04T04:11:09.167Z,39.63
2019-01-04T04:13:10.405Z,37.57
2019-01-04T04:15:11.328Z,40.93
2019-01-04T04:17:12.177Z,38.40
2019-01-04T04:19:13.133Z,41.60
2019-01-04T04:21:13.964Z,38.37
2019-01-04T04:23:14.785Z,39.27
2019-01-04T04:25:15.637Z,39.73
2019-01-04T04:27:16.499Z,41.77
2019-01-04T04:29:17.321Z,41.13
2019-01-04T04:31:18.154Z,38.03
2019-01-04T04:33:19.237Z,39.30
2019-01-04T04:35:20.069Z,38.83
2019-01-04T04:37:20.922Z,38.57
2019-01-04T04:39:22.034Z,38.67
2019-01-04T04:41:22.867Z,37.77
2019-01-04T04:43:23.713Z,41.87
2019-01-04T04:45:24.540Z,38.77
2019-01-04T04:47:25.387Z,37.93
2019-01-04T04:49:26.254Z,41.33
2019-01-04T04:51:27.081Z,39.00
2019-01-04T04:53:27.928Z,38.70
2019-01-04T04:55:28.781Z,43.87
2019-01-04T04:57:29.626Z,43.90
2019-01-04T04:59:30.464Z,39.80
2019-01-04T05:01:31.312Z,43.50
2019-01-04T05:03:32.145Z,42.23
2019-01-04T05:05:32.988Z,46.73
2019-01-04T05:07:33.833Z,41.63
2019-01-04T05:09:34.672Z,42.40
2019-01-04T05:11:35.523Z,46.13
2019-01-04T05:13:36.344Z,38.47
2019-01-04T05:15:37.195Z,47.63
2019-01-04T05:17:38.047Z,40.07
2019-01-04T05:19:38.881Z,44.30
2019-01-04T05:21:39.700Z,44.23
2019-01-04T05:23:40.550Z,42.70
2019-01-04T05:25:41.400Z,37.93
2019-01-04T05:27:42.228Z,43.70
2019-01-04T05:29:43.086Z,39.10
2019-01-04T05:31:43.906Z,38.73
2019-01-04T05:33:44.743Z,39.93
2019-01-04T05:35:45.892Z,40.50
2019-01-04T05:37:46.768Z,44.13
2019-01-04T05:39:47.681Z,36.97
2019-01-04T05:41:48.533Z,40.20
2019-01-04T05:43:49.360Z,37.77
2019-01-04T05:45:50.193Z,35.60
2019-01-04T05:47:51.341Z,38.97
2019-01-04T05:49:52.173Z,41.27
2019-01-04T05:51:53.019Z,36.20
2019-01-04T05:53:53.849Z,39.10
2019-01-04T05:55:54.699Z,41.07
2019-01-04T05:57:55.532Z,36.97
2019-01-04T05:59:56.377Z,35.70
2019-01-04T06:01:57.229Z,36.00
2019-01-04T06:03:58.051Z,34.73
2019-01-04T06:05:58.897Z,36.23
2019-01-04T06:07:59.756Z,36.63
2019-01-04T06:10:00.574Z,34.57
2019-01-04T06:12:01.428Z,36.93
2019-01-04T06:14:02.260Z,34.73
2019-01-04T06:16:03.096Z,37.20
2019-01-04T06:18:03.929Z,35.73
2019-01-04T06:20:04.815Z,36.77
2019-01-04T06:22:05.660Z,36.50
2019-01-04T06:24:06.514Z,38.73
2019-01-04T06:26:07.336Z,37.73
2019-01-04T06:28:08.190Z,36.77
2019-01-04T06:30:09.329Z,39.80
2019-01-04T06:32:10.157Z,41.73
2019-01-04T06:34:11.003Z,37.03
2019-01-04T06:36:11.872Z,36.13
2019-01-04T06:38:13.025Z,35.53
2019-01-04T06:40:13.857Z,38.70
2019-01-04T06:42:14.697Z,40.17
2019-01-04T06:44:15.541Z,39.30
2019-01-04T06:46:16.392Z,36.00
2019-01-04T06:48:17.217Z,38.63
2019-01-04T06:50:18.065Z,34.10
2019-01-04T06:52:18.901Z,38.97
2019-01-04T06:54:20.025Z,36.73
2019-01-04T06:56:20.877Z,34.80
2019-01-04T06:58:21.696Z,32.93
2019-01-04T07:00:22.528Z,41.27
2019-01-04T07:02:23.368Z,34.73
2019-01-04T07:04:24.196Z,37.97
2019-01-04T07:06:25.333Z,35.23
2019-01-04T07:08:26.583Z,39.10
2019-01-04T07:10:27.438Z,36.90
2019-01-04T07:12:28.524Z,34.63
2019-01-04T07:14:29.358Z,34.53
2019-01-04T07:16:30.209Z,32.30
2019-01-04T07:18:31.068Z,32.63
2019-01-04T07:20:31.888Z,34.20
2019-01-04T07:22:32.734Z,36.67
2019-01-04T07:24:33.572Z,41.23
2019-01-04T07:26:34.433Z,39.80
2019-01-04T07:28:35.621Z,35.73
2019-01-04T07:30:36.456Z,36.13
2019-01-04T07:32:37.309Z,35.93
2019-01-04T07:34:38.405Z,37.60
2019-01-04T07:36:39.260Z,38.13
2019-01-04T07:38:40.093Z,35.77
2019-01-04T07:40:40.940Z,35.77
2019-01-04T07:42:41.793Z,39.03
2019-01-04T07:44:42.629Z,38.30
2019-01-04T07:46:43.468Z,38.13
2019-01-04T07:48:44.328Z,41.03
2019-01-04T07:50:45.506Z,38.13
2019-01-04T07:52:46.336Z,38.03
2019-01-04T07:54:47.184Z,38.80
2019-01-04T07:56:48.040Z,37.77
2019-01-04T07:58:48.870Z,41.20
2019-01-04T08:00:49.707Z,38.87
2019-01-04T08:02:51.076Z,41.13
2019-01-04T08:04:51.908Z,38.47
2019-01-04T08:06:52.748Z,42.40
2019-01-04T08:08:54.025Z,40.30
2019-01-04T08:10:54.869Z,39.57
2019-01-04T08:12:55.729Z,43.43
2019-01-04T08:14:56.550Z,38.77
2019-01-04T08:16:57.401Z,39.33
2019-01-04T08:18:58.229Z,39.17
2019-01-04T08:20:59.408Z,36.97
2019-01-04T08:23:00.257Z,38.10
2019-01-04T08:25:01.089Z,40.50
2019-01-04T08:27:01.912Z,38.57
2019-01-04T08:29:02.753Z,37.33
2019-01-04T08:31:03.619Z,43.73
2019-01-04T08:33:04.444Z,38.13
2019-01-04T08:35:05.272Z,38.60
2019-01-04T08:37:06.116Z,38.43
2019-01-04T08:39:07.425Z,36.00
2019-01-04T08:41:08.276Z,39.77
2019-01-04T08:43:09.128Z,38.27
2019-01-04T08:45:09.960Z,33.13
2019-01-04T08:47:10.788Z,35.70
2019-01-04T08:49:11.637Z,36.73
2019-01-04T08:51:12.460Z,38.70
2019-01-04T08:53:13.304Z,43.57
2019-01-04T08:55:14.152Z,44.03
2019-01-04T08:57:15.008Z,35.73
2019-01-04T08:59:15.852Z,36.20
2019-01-04T09:01:16.698Z,33.93
2019-01-04T09:03:17.548Z,37.33
2019-01-04T09:05:18.376Z,36.57
2019-01-04T09:07:19.237Z,37.37
2019-01-04T09:09:20.525Z,37.30
2019-01-04T09:11:21.362Z,36.60
2019-01-04T09:13:22.208Z,37.70
2019-01-04T09:15:23.041Z,42.03
2019-01-04T09:17:23.869Z,38.57
2019-01-04T09:19:25.025Z,41.93
2019-01-04T09:21:25.859Z,37.60
2019-01-04T09:23:26.809Z,41.47
2019-01-04T09:25:27.636Z,36.23
2019-01-04T09:27:28.488Z,39.37
2019-01-04T09:29:29.332Z,37.93
2019-01-04T09:31:30.182Z,36.00
2019-01-04T09:33:31.021Z,34.93
2019-01-04T09:35:32.208Z,36.97
2019-01-04T09:37:33.324Z,39.17
2019-01-04T09:39:34.152Z,40.90
2019-01-04T09:41:35.004Z,39.17
2019-01-04T09:43:35.837Z,42.63
2019-01-04T09:45:36.660Z,41.07
2019-01-04T09:47:37.513Z,39.93
2019-01-04T09:49:38.349Z,42.47
2019-01-04T09:51:39.236Z,41.37
2019-01-04T09:53:40.093Z,41.90
2019-01-04T09:55:40.945Z,39.73
2019-01-04T09:57:42.064Z,38.63
2019-01-04T09:59:43.160Z,44.13
2019-01-04T10:01:43.988Z,42.03
2019-01-04T10:03:44.820Z,40.10
2019-01-04T10:05:45.945Z,42.20
2019-01-04T10:07:46.764Z,44.00
2019-01-04T10:09:47.608Z,37.10
2019-01-04T10:11:48.547Z,43.60
2019-01-04T10:13:50.241Z,41.87
2019-01-04T10:15:51.404Z,40.33
2019-01-04T10:17:52.248Z,42.57
2019-01-04T10:19:53.090Z,38.23
2019-01-04T10:21:53.917Z,34.97
2019-01-04T10:23:54.760Z,37.47
2019-01-04T10:25:55.596Z,35.10
2019-01-04T10:27:56.464Z,36.70
2019-01-04T10:29:57.540Z,35.47
2019-01-04T10:31:58.381Z,35.70
2019-01-04T10:33:59.349Z,40.90
2019-01-04T10:36:00.453Z,41.40
2019-01-04T10:38:01.285Z,39.40
2019-01-04T10:40:02.436Z,40.13
2019-01-04T10:42:03.560Z,37.43
2019-01-04T10:44:04.389Z,38.97
2019-01-04T10:46:05.247Z,51.90
2019-01-04T10:48:06.177Z,44.93
2019-01-04T10:50:07.333Z,40.20
2019-01-04T10:52:08.660Z,42.33
2019-01-04T10:54:09.510Z,43.17
2019-01-04T10:56:10.361Z,40.77
2019-01-04T10:58:11.461Z,41.90
2019-01-04T11:00:12.713Z,44.10
2019-01-04T11:02:13.541Z,40.90
2019-01-04T11:04:14.388Z,40.13
2019-01-04T11:06:15.245Z,37.97
2019-01-04T11:08:16.073Z,39.93
2019-01-04T11:10:16.916Z,37.13
2019-01-04T11:12:17.772Z,41.43
2019-01-04T11:14:18.601Z,36.57
2019-01-04T11:16:19.450Z,38.40
2019-01-04T11:18:20.633Z,37.17
2019-01-04T11:20:21.464Z,38.97
2019-01-04T11:22:22.301Z,38.43
2019-01-04T11:24:23.151Z,36.83
2019-01-04T11:26:23.984Z,38.93
2019-01-04T11:28:24.820Z,42.67
2019-01-04T11:30:25.657Z,39.73
2019-01-04T11:32:26.483Z,41.50
2019-01-04T11:34:27.341Z,39.27
2019-01-04T11:36:28.170Z,37.97
2019-01-04T11:38:29.006Z,37.47
2019-01-04T11:40:29.849Z,37.90
2019-01-04T11:42:30.700Z,40.70
2019-01-04T11:44:31.557Z,39.83
2019-01-04T11:46:32.390Z,40.43
2019-01-04T11:48:33.217Z,39.23
2019-01-04T11:50:34.064Z,37.53
2019-01-04T11:52:34.924Z,31.50
2019-01-04T11:54:36.019Z,38.53
2019-01-04T11:56:36.872Z,33.67
2019-01-04T11:58:37.692Z,37.37
2019-01-04T12:00:38.541Z,35.77
2019-01-04T12:02:39.395Z,38.67
2019-01-04T12:04:40.244Z,34.47
2019-01-04T12:06:41.116Z,36.57
2019-01-04T12:08:42.025Z,33.30
2019-01-04T12:10:42.864Z,34.77
2019-01-04T12:12:43.700Z,36.50
2019-01-04T12:14:44.548Z,33.40
2019-01-04T12:16:45.688Z,33.00
2019-01-04T12:18:46.529Z,33.37
2019-01-04T12:20:47.373Z,34.33
2019-01-04T12:22:48.200Z,34.67
2019-01-04T12:24:49.070Z,32.10
2019-01-04T12:26:49.997Z,29.40
2019-01-04T12:28:50.824Z,28.53
2019-01-04T12:30:51.672Z,29.30
2019-01-04T12:32:52.980Z,27.97
2019-01-04T12:34:53.809Z,31.10
2019-01-04T12:36:54.964Z,30.43
2019-01-04T12:38:56.084Z,31.60
2019-01-04T12:40:56.909Z,30.70
2019-01-04T12:42:57.760Z,32.67
2019-01-04T12:44:58.593Z,28.30
2019-01-04T12:46:59.433Z,30.90
2019-01-04T12:49:00.269Z,32.13
2019-01-04T12:51:01.088Z,27.90
2019-01-04T12:53:02.240Z,25.50
2019-01-04T12:55:03.072Z,31.13
2019-01-04T12:57:03.920Z,29.03
2019-01-04T12:59:04.769Z,29.67
2019-01-04T13:01:05.605Z,29.77
2019-01-04T13:03:06.452Z,27.47
2019-01-04T13:05:07.294Z,28.57
2019-01-04T13:07:08.476Z,27.77
2019-01-04T13:09:09.324Z,26.93
2019-01-04T13:11:10.437Z,25.73
2019-01-04T13:13:11.289Z,32.40
2019-01-04T13:15:12.129Z,26.63
2019-01-04T13:17:12.994Z,30.23
2019-01-04T13:19:13.865Z,32.93
2019-01-04T13:21:14.696Z,25.67
2019-01-04T13:23:15.520Z,29.17
2019-01-04T13:25:16.360Z,29.40
2019-01-04T13:27:17.528Z,31.73
2019-01-04T13:29:18.356Z,28.03
2019-01-04T13:31:19.187Z,30.57
2019-01-04T13:33:20.031Z,29.13
2019-01-04T13:35:20.897Z,29.83
2019-01-04T13:37:21.711Z,30.40
2019-01-04T13:39:22.568Z,31.40
2019-01-04T13:41:23.396Z,30.53
2019-01-04T13:43:24.245Z,32.63
2019-01-04T13:45:25.076Z,32.90
2019-01-04T13:47:32.087Z,31.33
2019-01-04T13:49:28.653Z,35.97
2019-01-04T13:51:29.756Z,34.40
2019-01-04T13:53:30.604Z,34.40
2019-01-04T13:55:31.436Z,34.40
2019-01-04T13:57:32.281Z,35.37
2019-01-04T13:59:33.121Z,32.53
2019-01-04T14:01:33.981Z,36.53
2019-01-04T14:03:34.814Z,34.50
2019-01-04T14:05:35.636Z,33.77
2019-01-04T14:07:36.494Z,31.60
2019-01-04T14:09:37.664Z,32.17
2019-01-04T14:11:38.500Z,30.07
2019-01-04T14:13:39.340Z,31.93
2019-01-04T14:15:40.468Z,30.37
2019-01-04T14:17:41.633Z,31.27
2019-01-04T14:19:42.784Z,33.27
2019-01-04T14:21:43.608Z,30.77
2019-01-04T14:23:44.442Z,32.30
2019-01-04T14:25:45.285Z,30.87
2019-01-04T14:27:46.120Z,33.27
2019-01-04T14:29:46.949Z,32.93
2019-01-04T14:31:47.789Z,33.00
2019-01-04T14:33:48.645Z,31.30
2019-01-04T14:35:49.592Z,28.33
2019-01-04T14:37:50.446Z,32.07
2019-01-04T14:39:51.620Z,31.20
2019-01-04T14:41:52.446Z,29.53
2019-01-04T14:43:53.280Z,27.93
2019-01-04T14:45:54.124Z,28.03
2019-01-04T14:47:54.949Z,28.90
2019-01-04T14:49:56.073Z,28.47
2019-01-04T14:51:56.916Z,29.00
2019-01-04T14:53:57.768Z,30.30
2019-01-04T14:55:58.618Z,28.60
2019-01-04T14:57:59.447Z,28.50
2019-01-04T15:00:00.276Z,31.30
2019-01-04T15:02:01.119Z,29.90
2019-01-04T15:04:01.944Z,29.97
2019-01-04T15:06:02.768Z,28.83
2019-01-04T15:08:03.614Z,28.47
2019-01-04T15:10:04.450Z,28.73
2019-01-04T15:12:05.572Z,28.73
2019-01-04T15:14:06.400Z,30.30
2019-01-04T15:16:07.225Z,28.83
2019-01-04T15:18:08.085Z,27.33
2019-01-04T15:20:08.900Z,26.37
2019-01-04T15:22:09.747Z,27.00
2019-01-04T15:24:10.602Z,28.27
2019-01-04T15:26:11.431Z,27.10
2019-01-04T15:28:12.253Z,27.53
2019-01-04T15:30:13.101Z,23.10
2019-01-04T15:32:13.952Z,27.33
2019-01-04T15:34:15.225Z,29.70
2019-01-04T15:36:16.372Z,26.53
2019-01-04T15:38:17.209Z,27.00
2019-01-04T15:40:18.040Z,27.60
2019-01-04T15:42:19.176Z,29.37
2019-01-04T15:44:20.013Z,26.53
2019-01-04T15:46:20.828Z,25.17
2019-01-04T15:48:21.681Z,26.77
2019-01-04T15:50:22.521Z,26.73
2019-01-04T15:52:23.365Z,28.17
2019-01-04T15:54:24.195Z,30.17
2019-01-04T15:56:25.035Z,26.47
2019-01-04T15:58:25.872Z,26.07
2019-01-04T16:00:26.996Z,26.37
2019-01-04T16:02:27.859Z,24.27
2019-01-04T16:04:28.680Z,25.17
2019-01-04T16:06:29.518Z,26.97
2019-01-04T16:08:30.364Z,27.07
2019-01-04T16:10:31.200Z,27.13
2019-01-04T16:12:32.030Z,26.87
2019-01-04T16:14:32.880Z,29.23
2019-01-04T16:16:34.041Z,27.70
2019-01-04T16:18:34.895Z,26.13
2019-01-04T16:20:35.725Z,29.80
2019-01-04T16:22:36.577Z,27.30
2019-01-04T16:24:37.719Z,28.07
2019-01-04T16:26:38.540Z,27.13
2019-01-04T16:28:39.418Z,27.63
2019-01-04T16:30:40.313Z,26.87
2019-01-04T16:32:41.174Z,26.73
2019-01-04T16:34:42.377Z,28.07
2019-01-04T16:36:43.205Z,27.00
2019-01-04T16:38:44.049Z,31.77
2019-01-04T16:40:44.905Z,28.40
2019-01-04T16:42:45.789Z,28.17
2019-01-04T16:44:46.628Z,30.30
2019-01-04T16:46:47.468Z,26.40
2019-01-04T16:48:48.291Z,24.80
2019-01-04T16:50:49.137Z,28.07
2019-01-04T16:52:49.969Z,25.77
2019-01-04T16:54:50.819Z,27.17
2019-01-04T16:56:51.748Z,32.83
2019-01-04T16:58:52.596Z,27.50
2019-01-04T17:00:53.439Z,27.13
2019-01-04T17:02:54.257Z,26.10
2019-01-04T17:04:55.500Z,27.83
2019-01-04T17:06:56.340Z,24.90
2019-01-04T17:08:57.193Z,28.13
2019-01-04T17:10:58.020Z,26.07
2019-01-04T17:12:58.857Z,24.87
2019-01-04T17:14:59.952Z,27.80
2019-01-04T17:17:00.780Z,28.57
2019-01-04T17:19:01.612Z,29.07
2019-01-04T17:21:02.466Z,31.17
2019-01-04T17:23:03.584Z,30.50
2019-01-04T17:25:04.432Z,27.97
2019-01-04T17:27:05.271Z,27.97
2019-01-04T17:29:06.112Z,26.43
2019-01-04T17:31:06.972Z,29.57
2019-01-04T17:33:07.802Z,28.37
2019-01-04T17:35:08.648Z,28.00
2019-01-04T17:37:09.482Z,29.83
2019-01-04T17:39:10.399Z,28.30
2019-01-04T17:41:11.248Z,27.20
2019-01-04T17:43:12.081Z,29.73
2019-01-04T17:45:13.469Z,26.50
2019-01-04T17:47:14.316Z,27.77
2019-01-04T17:49:15.143Z,28.40
2019-01-04T17:51:15.995Z,30.00
2019-01-04T17:53:16.828Z,27.20
2019-01-04T17:55:17.664Z,29.33
2019-01-04T17:57:18.513Z,28.67
2019-01-04T17:59:19.349Z,26.37
2019-01-04T18:01:20.209Z,25.17
2019-01-04T18:03:21.038Z,27.23
2019-01-04T18:05:21.885Z,27.80
2019-01-04T18:07:22.716Z,28.63
2019-01-04T18:09:23.536Z,28.90
2019-01-04T18:11:24.398Z,27.70
2019-01-04T18:13:25.216Z,28.17
2019-01-04T18:15:26.064Z,29.90
2019-01-04T18:17:27.208Z,27.63
2019-01-04T18:19:28.367Z,28.10
2019-01-04T18:21:29.191Z,24.43
2019-01-04T18:23:30.026Z,25.00
2019-01-04T18:25:30.864Z,27.90
2019-01-04T18:27:31.692Z,26.63
2019-01-04T18:29:32.547Z,24.50
2019-01-04T18:31:33.388Z,30.70
2019-01-04T18:33:34.225Z,31.80
2019-01-04T18:35:35.078Z,29.43
2019-01-04T18:37:36.252Z,26.37
2019-01-04T18:39:37.085Z,26.07
2019-01-04T18:41:37.931Z,25.40
2019-01-04T18:43:38.760Z,28.27
2019-01-04T18:45:39.608Z,25.50
2019-01-04T18:47:40.433Z,28.03
2019-01-04T18:49:41.275Z,29.03
2019-01-04T18:51:42.108Z,26.90
2019-01-04T18:53:42.955Z,28.73
2019-01-04T18:55:43.784Z,28.03
2019-01-04T18:57:44.612Z,27.80
2019-01-04T18:59:45.449Z,25.57
2019-01-04T19:01:46.275Z,27.73
2019-01-04T19:03:47.132Z,28.90
2019-01-04T19:05:48.073Z,30.43
2019-01-04T19:07:48.932Z,28.77
2019-01-04T19:09:50.096Z,29.37
2019-01-04T19:11:51.168Z,31.17
2019-01-04T19:13:52.036Z,28.83
2019-01-04T19:15:52.844Z,31.10
2019-01-04T19:17:53.668Z,31.57
2019-01-04T19:19:54.516Z,28.27
2019-01-04T19:21:55.343Z,28.70
2019-01-04T19:23:56.173Z,29.73
2019-01-04T19:25:57.032Z,27.27
2019-01-04T19:27:58.316Z,30.27
2019-01-04T19:29:59.144Z,30.00
2019-01-04T19:31:59.986Z,28.70
2019-01-04T19:34:00.828Z,28.17
2019-01-04T19:36:01.661Z,30.67
2019-01-04T19:38:02.492Z,30.70
2019-01-04T19:40:03.453Z,32.77
2019-01-04T19:42:04.548Z,30.73
2019-01-04T19:44:05.383Z,33.37
2019-01-04T19:46:06.633Z,30.53
2019-01-04T19:48:07.767Z,29.43
2019-01-04T19:50:08.612Z,34.70
2019-01-04T19:52:09.444Z,32.30
2019-01-04T19:54:10.536Z,29.70
2019-01-04T19:56:11.390Z,31.77
2019-01-04T19:58:12.555Z,31.40
2019-01-04T20:00:13.389Z,30.97
2019-01-04T20:02:14.657Z,31.73
2019-01-04T20:04:15.480Z,29.77
2019-01-04T20:06:39.153Z,28.93
2019-01-04T20:08:58.484Z,30.43
2019-01-04T20:11:22.025Z,32.57
2019-01-04T20:13:48.620Z,32.00
2019-01-04T20:16:24.232Z,31.67
2019-01-04T20:18:53.811Z,33.33
2019-01-04T20:21:12.944Z,32.63
2019-01-04T20:23:32.284Z,33.50
2019-01-04T20:25:51.672Z,36.63
2019-01-04T20:28:18.244Z,34.90
2019-01-04T20:30:41.479Z,31.50
2019-01-04T20:33:00.620Z,34.60
2019-01-04T20:35:19.981Z,31.53
2019-01-04T20:37:34.816Z,33.23
2019-01-04T20:40:01.381Z,34.93
2019-01-04T20:42:20.472Z,31.97
2019-01-04T20:44:50.213Z,31.57
2019-01-04T20:47:22.889Z,31.47
2019-01-04T20:49:52.457Z,33.33
2019-01-04T20:52:11.656Z,33.13
2019-01-04T20:54:38.177Z,33.13
2019-01-04T20:57:07.719Z,34.87
2019-01-04T20:59:28.200Z,30.73
2019-01-04T21:01:47.501Z,28.67
2019-01-04T21:04:17.049Z,31.33
2019-01-04T21:06:43.497Z,32.67
2019-01-04T21:09:02.916Z,32.80
2019-01-04T21:11:21.719Z,31.10
2019-01-04T21:13:41.233Z,33.17
2019-01-04T21:16:00.776Z,30.13
2019-01-04T21:18:23.209Z,33.83
2019-01-04T21:20:42.788Z,37.67
2019-01-04T21:23:06.420Z,32.97
2019-01-04T21:25:32.900Z,33.93
2019-01-04T21:28:01.793Z,33.27
2019-01-04T21:30:28.306Z,31.73
2019-01-04T21:32:52.509Z,31.97
2019-01-04T21:35:28.290Z,32.07
2019-01-04T21:37:55.510Z,33.80
2019-01-04T21:40:14.924Z,28.40
2019-01-04T21:42:41.719Z,35.53
2019-01-04T21:44:47.989Z,32.30
2019-01-04T21:47:07.379Z,33.00
2019-01-04T21:49:26.753Z,31.00
2019-01-04T21:52:05.572Z,30.60
2019-01-04T21:54:28.613Z,29.87
2019-01-04T21:56:49.089Z,29.90
2019-01-04T21:59:08.451Z,28.93
2019-01-04T22:01:31.984Z,32.60
2019-01-04T22:04:00.073Z,31.23
2019-01-04T22:06:29.565Z,32.73
2019-01-04T22:08:49.012Z,32.07
2019-01-04T22:11:08.400Z,35.77
2019-01-04T22:13:28.872Z,33.87
2019-01-04T22:15:48.260Z,29.63
2019-01-04T22:18:08.745Z,32.13
2019-01-04T22:20:28.125Z,35.20
2019-01-04T22:22:47.545Z,30.80
2019-01-04T22:25:26.452Z,31.93
2019-01-04T22:27:45.572Z,33.73
2019-01-04T22:30:03.138Z,35.97
2019-01-04T22:32:22.341Z,33.60
2019-01-04T22:34:41.800Z,34.27
2019-01-04T22:36:53.955Z,35.63
2019-01-04T22:39:13.622Z,38.70
2019-01-04T22:41:42.949Z,33.83
2019-01-04T22:44:04.200Z,37.20
2019-01-04T22:46:20.353Z,33.43
2019-01-04T22:48:52.954Z,35.77
2019-01-04T22:51:19.271Z,37.23
2019-01-04T22:53:45.821Z,36.67
2019-01-04T22:56:06.296Z,35.87
2019-01-04T22:58:29.825Z,36.03
2019-01-04T23:00:46.872Z,35.87
2019-01-04T23:03:06.352Z,36.00
2019-01-04T23:05:25.912Z,36.60
2019-01-04T23:08:01.912Z,36.30
2019-01-04T23:10:25.649Z,36.90
2019-01-04T23:12:55.226Z,38.40
2019-01-04T23:15:19.997Z,38.10
2019-01-04T23:17:39.245Z,36.87
2019-01-04T23:20:15.136Z,35.30
2019-01-04T23:22:47.721Z,37.77
2019-01-04T23:25:06.852Z,34.43
2019-01-04T23:27:26.221Z,37.80
2019-01-04T23:29:53.925Z,35.97
2019-01-04T23:32:13.196Z,35.87
2019-01-04T23:34:32.467Z,34.50
2019-01-04T23:36:51.840Z,32.90
2019-01-04T23:39:11.170Z,32.83
2019-01-04T23:41:47.075Z,33.07
2019-01-04T23:44:22.669Z,35.63
2019-01-04T23:46:45.856Z,33.33
2019-01-04T23:49:06.756Z,35.77
2019-01-04T23:51:30.045Z,34.73
2019-01-04T23:53:49.747Z,32.37
2019-01-04T23:56:09.273Z,33.40
2019-01-04T23:58:32.874Z,34.67
